Time;durP1;ratioP1;P1;durP2;ratioP2;P2;SDS_P1;SDS_P2;PMS_P1;PMS_P2;Temp;Humidity;BMP_temperature;BMP_pressure;BME280_temperature;BME280_humidity;BME280_pressure;Samples;Min_cycle;Max_cycle;Signal;HPM_P1;HPM_P2
2023/09/24 00:02:13;;;;;;;0.20;0.20;;;;;;;16.44;43.86;100494.78;5034112;28;20587;-70
2023/09/24 00:04:39;;;;;;;0.20;0.20;;;;;;;16.46;43.41;100486.22;5042491;28;20055;-67
2023/09/24 00:07:07;;;;;;;0.20;0.20;;;;;;;16.53;43.59;100489.41;5044296;28;20080;-70
2023/09/24 00:09:33;;;;;;;0.20;0.20;;;;;;;16.57;43.17;100492.41;5048583;28;20049;-68
2023/09/24 00:12:00;;;;;;;0.20;0.20;;;;;;;16.57;43.12;100492.41;5045618;28;20056;-70
2023/09/24 00:14:26;;;;;;;0.20;0.20;;;;;;;16.57;42.99;100487.72;5038055;28;20482;-70
2023/09/24 00:16:52;;;;;;;0.20;0.20;;;;;;;16.62;43.33;100486.00;5036453;28;20045;-69
2023/09/24 00:19:19;;;;;;;0.20;0.20;;;;;;;16.61;43.65;100492.63;5024192;28;20025;-66
2023/09/24 00:21:48;;;;;;;0.20;0.20;;;;;;;16.58;44.05;100492.13;5044261;28;20042;-68
2023/09/24 00:24:18;;;;;;;0.20;0.20;;;;;;;16.51;43.68;100485.34;5020729;28;20083;-69
2023/09/24 00:26:45;;;;;;;0.20;0.20;;;;;;;16.55;44.15;100486.38;5034906;28;20139;-70
2023/09/24 00:29:11;;;;;;;0.20;0.20;;;;;;;16.54;45.15;100493.00;5033725;28;20045;-70
2023/09/24 00:31:37;;;;;;;0.20;0.20;;;;;;;16.53;44.63;100494.94;4992902;28;20073;-68
2023/09/24 00:34:04;;;;;;;0.20;0.20;;;;;;;16.51;45.31;100490.84;5028515;28;20044;-67
2023/09/24 00:36:32;;;;;;;0.20;0.20;;;;;;;16.51;44.85;100482.56;5024433;28;20049;-70
2023/09/24 00:38:59;;;;;;;0.20;0.20;;;;;;;16.49;44.76;100499.41;5039368;28;20087;-68
2023/09/24 00:41:27;;;;;;;0.20;0.20;;;;;;;16.40;45.12;100473.63;5041875;28;20230;-68
2023/09/24 00:43:54;;;;;;;0.20;0.20;;;;;;;16.45;46.13;100498.38;5029084;28;20052;-69
2023/09/24 00:46:21;;;;;;;0.20;0.20;;;;;;;16.45;45.70;100499.19;5023779;28;20107;-69
2023/09/24 00:48:50;;;;;;;0.20;0.20;;;;;;;16.45;45.30;100490.91;5037564;28;20052;-70
2023/09/24 00:51:18;;;;;;;0.20;0.20;;;;;;;16.46;45.31;100494.50;5038117;28;21292;-68
2023/09/24 00:53:46;;;;;;;0.20;0.20;;;;;;;16.43;45.90;100492.34;5036793;28;20037;-68
2023/09/24 00:56:13;;;;;;;0.20;0.20;;;;;;;16.39;45.68;100492.09;5024693;28;20696;-68
2023/09/24 00:58:42;;;;;;;0.20;0.20;;;;;;;16.39;46.06;100488.50;5046002;28;20204;-68
2023/09/24 01:01:09;;;;;;;0.20;0.20;;;;;;;16.40;45.82;100492.94;5049580;28;20051;-69
2023/09/24 01:03:39;;;;;;;0.20;0.20;;;;;;;16.39;45.71;100480.22;5043049;28;20307;-68
2023/09/24 01:06:06;;;;;;;0.20;0.20;;;;;;;16.35;45.55;100487.47;5026605;28;20090;-68
2023/09/24 01:08:33;;;;;;;0.20;0.20;;;;;;;16.29;45.71;100483.97;5044329;28;20106;-69
2023/09/24 01:11:01;;;;;;;0.20;0.20;;;;;;;16.21;45.89;100485.44;5027665;28;20061;-69
2023/09/24 01:13:36;;;;;;;0.20;0.20;;;;;;;16.15;46.05;100489.41;5022858;28;20057;-68
2023/09/24 01:16:06;;;;;;;0.20;0.20;;;;;;;16.13;46.79;100478.66;5043311;28;20045;-67
2023/09/24 01:18:43;;;;;;;0.20;0.20;;;;;;;16.13;46.79;100484.16;5052837;28;20045;-69
2023/09/24 01:21:11;;;;;;;0.20;0.20;;;;;;;16.11;47.04;100485.59;5045848;28;20048;-68
2023/09/24 01:23:40;;;;;;;0.20;0.20;;;;;;;16.11;46.70;100486.41;5032899;28;20455;-69
2023/09/24 01:26:10;;;;;;;0.20;0.20;;;;;;;16.07;46.65;100476.25;5018710;28;20071;-68
2023/09/24 01:28:37;;;;;;;0.20;0.20;;;;;;;16.09;47.15;100479.56;5013814;28;20082;-70
2023/09/24 01:31:04;;;;;;;0.20;0.20;;;;;;;16.11;46.99;100469.84;5010554;28;20045;-70
2023/09/24 01:33:31;;;;;;;0.20;0.20;;;;;;;16.12;46.71;100476.19;5039494;28;20072;-70
2023/09/24 01:35:58;;;;;;;0.20;0.20;;;;;;;16.08;46.99;100472.38;5048188;28;20144;-70
2023/09/24 01:38:25;;;;;;;0.20;0.20;;;;;;;16.06;47.17;100478.19;5042311;28;20068;-70
2023/09/24 01:40:54;;;;;;;0.15;0.15;;;;;;;16.02;46.77;100475.22;5039355;28;20045;-70
2023/09/24 01:43:21;;;;;;;0.20;0.20;;;;;;;15.97;46.80;100480.78;5032567;28;20466;-69
2023/09/24 01:45:48;;;;;;;0.20;0.20;;;;;;;15.93;46.95;100482.50;5041443;28;20091;-69
2023/09/24 01:48:17;;;;;;;0.20;0.20;;;;;;;15.98;47.29;100476.09;5024861;28;20597;-67
2023/09/24 01:50:44;;;;;;;0.20;0.20;;;;;;;15.97;47.46;100475.28;5028190;28;20041;-68
2023/09/24 01:53:11;;;;;;;0.13;0.13;;;;;;;16.00;46.89;100480.19;5044529;28;20416;-70
2023/09/24 01:55:38;;;;;;;0.20;0.20;;;;;;;15.98;47.82;100476.09;5043088;28;20048;-69
2023/09/24 01:58:06;;;;;;;0.10;0.10;;;;;;;16.00;47.31;100474.69;5028555;28;20095;-69
2023/09/24 02:00:32;;;;;;;0.10;0.10;;;;;;;15.99;46.94;100466.69;5029368;28;20041;-70
2023/09/24 02:03:05;;;;;;;0.20;0.20;;;;;;;15.95;46.72;100469.25;5029510;28;20470;-70
2023/09/24 02:05:33;;;;;;;0.15;0.15;;;;;;;15.94;47.48;100470.34;5025407;28;20491;-68
2023/09/24 02:07:59;;;;;;;0.20;0.20;;;;;;;15.94;47.32;100470.34;5002034;28;20045;-68
2023/09/24 02:10:27;;;;;;;0.20;0.20;;;;;;;15.91;47.51;100465.41;5040068;28;20115;-74
2023/09/24 02:12:54;;;;;;;0.20;0.20;;;;;;;15.92;47.14;100464.31;5021095;28;20694;-68
2023/09/24 02:15:25;;;;;;;0.20;0.20;;;;;;;15.92;47.45;100456.03;5000149;28;20044;-70
2023/09/24 02:17:51;;;;;;;0.20;0.20;;;;;;;15.90;47.98;100452.75;5049603;28;20052;-71
2023/09/24 02:20:31;;;;;;;0.13;0.13;;;;;;;15.96;48.25;100465.38;5008372;28;20045;-71
2023/09/24 02:22:59;;;;;;;0.20;0.20;;;;;;;15.97;47.64;100447.69;5021866;28;20645;-68
2023/09/24 02:25:29;;;;;;;0.20;0.20;;;;;;;15.98;48.45;100454.03;5028360;28;20051;-69
2023/09/24 02:27:57;;;;;;;0.20;0.20;;;;;;;15.98;48.00;100456.78;5008847;28;20053;-70
2023/09/24 02:30:27;;;;;;;0.15;0.15;;;;;;;15.94;48.47;100464.00;5022331;28;20044;-67
2023/09/24 02:32:54;;;;;;;0.20;0.20;;;;;;;15.92;48.24;100464.31;5021889;28;20038;-70
2023/09/24 02:35:21;;;;;;;0.10;0.10;;;;;;;15.89;48.43;100462.13;5037001;28;20061;-70
2023/09/24 02:38:08;;;;;;;0.10;0.10;;;;;;;15.83;48.61;100458.56;5026935;28;20295;-70
2023/09/24 02:40:34;;;;;;;;;;;;;;;15.80;48.91;100455.63;5025646;28;20044;-67
2023/09/24 02:43:03;;;;;;;0.15;0.15;;;;;;;15.78;49.06;100466.91;5008505;28;20306;-65
2023/09/24 02:45:32;;;;;;;0.22;0.20;;;;;;;15.78;48.50;100457.84;5032025;28;20044;-67
2023/09/24 02:48:06;;;;;;;0.10;0.10;;;;;;;15.70;48.68;100462.88;5033163;28;20056;-69
2023/09/24 02:50:33;;;;;;;0.10;0.10;;;;;;;15.64;49.45;100461.31;5019985;28;20046;-67
2023/09/24 02:53:00;;;;;;;0.10;0.10;;;;;;;15.63;49.06;100467.94;5020365;28;20436;-68
2023/09/24 02:55:29;;;;;;;0.20;0.20;;;;;;;15.60;49.24;100460.22;5010496;28;20590;-67
2023/09/24 02:57:57;;;;;;;0.10;0.10;;;;;;;15.56;48.82;100465.53;5037807;28;20052;-69
2023/09/24 03:00:41;;;;;;;0.20;0.20;;;;;;;15.52;49.09;100460.88;5023439;28;20262;-68
2023/09/24 03:03:15;;;;;;;;;;;;;;;15.51;49.70;100467.50;5018221;28;20069;-67
2023/09/24 03:05:43;;;;;;;0.15;0.15;;;;;;;15.50;49.70;100469.44;5007833;28;19962;-67
2023/09/24 03:08:10;;;;;;;0.10;0.10;;;;;;;15.48;49.50;100468.91;5034773;28;20067;-67
2023/09/24 03:10:36;;;;;;;0.20;0.20;;;;;;;15.45;49.45;100458.47;5044286;28;20092;-67
2023/09/24 03:13:06;;;;;;;0.20;0.20;;;;;;;15.42;49.65;100459.06;5043260;28;20090;-68
2023/09/24 03:15:35;;;;;;;0.20;0.20;;;;;;;15.37;49.61;100461.84;5041499;28;20051;-71
2023/09/24 03:18:01;;;;;;;0.15;0.15;;;;;;;15.34;49.52;100460.50;5025301;28;20539;-71
2023/09/24 03:20:29;;;;;;;0.13;0.13;;;;;;;15.29;49.90;100471.56;5008090;28;20494;-68
2023/09/24 03:22:58;;;;;;;0.20;0.20;;;;;;;15.26;49.81;100469.38;5050534;28;20307;-71
2023/09/24 03:25:26;;;;;;;0.10;0.10;;;;;;;15.22;50.15;100458.16;5026148;28;20135;-70
2023/09/24 03:27:55;;;;;;;0.20;0.20;;;;;;;15.21;50.14;100463.94;5043449;28;20060;-66
2023/09/24 03:30:21;;;;;;;0.15;0.15;;;;;;;15.23;49.99;100464.47;5034723;28;20044;-68
2023/09/24 03:32:49;;;;;;;0.20;0.20;;;;;;;15.21;50.19;100470.25;5018708;28;20059;-67
2023/09/24 03:35:19;;;;;;;0.20;0.20;;;;;;;15.21;50.52;100467.50;5023796;28;20053;-69
2023/09/24 03:37:49;;;;;;;0.20;0.20;;;;;;;15.21;50.63;100480.47;4986857;28;20157;-70
2023/09/24 03:40:17;;;;;;;0.10;0.10;;;;;;;15.23;50.43;100478.25;5040156;28;20135;-68
2023/09/24 03:42:46;;;;;;;0.20;0.20;;;;;;;15.22;50.67;100476.59;5007913;28;20112;-67
2023/09/24 03:45:15;;;;;;;0.10;0.10;;;;;;;15.21;50.93;100475.75;5005055;28;20041;-67
2023/09/24 03:47:42;;;;;;;0.20;0.20;;;;;;;15.22;51.28;100471.94;5042901;28;20061;-67
2023/09/24 03:50:13;;;;;;;0.10;0.10;;;;;;;15.25;51.73;100479.59;5016188;28;20568;-66
2023/09/24 03:52:42;;;;;;;0.13;0.13;;;;;;;15.27;51.36;100482.88;5028888;28;20048;-67
2023/09/24 03:55:10;;;;;;;0.20;0.20;;;;;;;15.23;51.64;100472.72;5042106;28;20044;-66
2023/09/24 03:57:39;;;;;;;0.20;0.20;;;;;;;15.31;51.19;100478.44;5017926;28;20162;-70
2023/09/24 04:00:21;;;;;;;0.20;0.20;;;;;;;15.22;51.47;100471.09;5020213;28;20053;-67
2023/09/24 04:02:49;;;;;;;0.20;0.20;;;;;;;15.29;51.69;100488.09;5020392;28;20548;-68
2023/09/24 04:05:21;;;;;;;0.20;0.20;;;;;;;15.28;51.54;100487.28;5036470;28;20038;-68
2023/09/24 04:07:51;;;;;;;0.20;0.20;;;;;;;15.25;51.80;100490.63;5026683;28;20594;-70
2023/09/24 04:10:21;;;;;;;0.10;0.10;;;;;;;15.24;51.47;100488.97;5046432;28;20056;-67
2023/09/24 04:12:52;;;;;;;0.45;0.20;;;;;;;15.24;51.88;100491.75;5002155;28;20056;-69
2023/09/24 04:15:21;;;;;;;0.15;0.15;;;;;;;14.80;52.32;100408.13;5001653;28;20053;-67
2023/09/24 04:17:48;;;;;;;0.13;0.13;;;;;;;15.27;52.04;100479.28;5019080;28;20048;-69
2023/09/24 04:20:20;;;;;;;0.20;0.20;;;;;;;15.35;52.25;100486.09;5002478;28;20508;-68
2023/09/24 04:22:47;;;;;;;0.10;0.10;;;;;;;15.33;51.60;100478.16;5039443;28;20053;-68
2023/09/24 04:25:15;;;;;;;0.13;0.13;;;;;;;15.29;51.42;100488.94;5053372;28;20136;-69
2023/09/24 04:27:42;;;;;;;0.20;0.20;;;;;;;15.29;52.00;100488.09;4998143;28;20057;-70
2023/09/24 04:30:15;;;;;;;0.20;0.20;;;;;;;15.32;51.95;100493.84;5024950;28;20049;-68
2023/09/24 04:32:41;;;;;;;0.20;0.20;;;;;;;15.48;51.38;100488.19;5047006;28;20053;-70
2023/09/24 04:35:10;;;;;;;0.20;0.20;;;;;;;15.60;51.58;100490.53;5025726;28;20569;-68
2023/09/24 04:37:39;;;;;;;0.20;0.20;;;;;;;15.75;50.65;100486.81;5015707;28;20393;-68
2023/09/24 04:40:07;;;;;;;0.20;0.20;;;;;;;15.93;50.79;100493.53;5038238;28;20049;-67
2023/09/24 04:42:34;;;;;;;0.20;0.20;;;;;;;16.05;49.97;100484.84;5020012;28;20044;-69
2023/09/24 04:45:03;;;;;;;0.20;0.20;;;;;;;16.04;50.17;100485.94;5024229;28;20037;-67
2023/09/24 04:47:31;;;;;;;0.20;0.20;;;;;;;16.06;50.15;100489.22;5048330;28;20049;-67
2023/09/24 04:49:57;;;;;;;0.20;0.20;;;;;;;16.11;49.79;100488.34;5044874;28;20095;-70
2023/09/24 04:52:25;;;;;;;0.15;0.15;;;;;;;15.90;49.66;100466.53;5023819;28;20037;-70
2023/09/24 04:54:52;;;;;;;;;;;;;;;15.98;50.52;100493.47;5042796;28;20539;-67
2023/09/24 04:57:18;;;;;;;;;;;;;;;15.97;50.57;100485.47;5042403;28;19929;-68
2023/09/24 04:59:44;;;;;;;0.32;0.20;;;;;;;15.91;50.63;100489.41;5027503;28;19925;-70
2023/09/24 05:02:12;;;;;;;0.20;0.20;;;;;;;15.81;50.20;100496.66;5044993;28;20041;-70
2023/09/24 05:04:38;;;;;;;0.20;0.20;;;;;;;15.73;50.84;100495.34;5023890;28;20048;-68
2023/09/24 05:07:04;;;;;;;0.20;0.20;;;;;;;15.51;50.70;100473.81;5045083;28;20041;-70
2023/09/24 05:09:30;;;;;;;0.20;0.20;;;;;;;15.46;51.04;100482.16;5025839;28;20432;-69
2023/09/24 05:11:57;;;;;;;0.20;0.20;;;;;;;15.59;50.49;100500.75;5047278;28;20118;-68
2023/09/24 05:14:23;;;;;;;0.20;0.20;;;;;;;15.57;50.68;100505.75;5039234;28;20045;-68
2023/09/24 05:16:51;;;;;;;0.20;0.20;;;;;;;15.55;50.77;100505.22;5021991;28;20083;-68
2023/09/24 05:19:18;;;;;;;0.20;0.20;;;;;;;15.56;50.23;100506.03;5045424;28;20574;-70
2023/09/24 05:21:45;;;;;;;0.20;0.20;;;;;;;15.59;50.31;100513.69;5022870;28;20045;-71
2023/09/24 05:24:11;;;;;;;0.10;0.10;;;;;;;15.57;50.72;100507.66;5019016;28;20084;-71
2023/09/24 05:26:39;;;;;;;0.20;0.20;;;;;;;15.59;50.57;100520.06;5006871;28;20659;-71
2023/09/24 05:29:06;;;;;;;0.20;0.20;;;;;;;15.60;50.26;100518.94;5039035;28;20107;-71
2023/09/24 05:31:33;;;;;;;0.20;0.20;;;;;;;15.59;50.78;100513.69;5016213;28;20424;-68
2023/09/24 05:33:59;;;;;;;0.30;0.30;;;;;;;15.75;50.41;100519.88;5040137;28;20068;-68
2023/09/24 05:36:27;;;;;;;0.20;0.20;;;;;;;15.93;49.38;100523.03;5042631;28;20098;-68
2023/09/24 05:38:55;;;;;;;0.30;0.30;;;;;;;16.11;49.10;100524.22;5037257;28;20057;-68
2023/09/24 05:41:23;;;;;;;0.20;0.20;;;;;;;16.36;48.73;100522.22;4994889;28;20056;-69
2023/09/24 05:43:50;;;;;;;0.20;0.20;;;;;;;16.53;48.34;100522.53;5019916;28;20045;-71
2023/09/24 05:46:16;;;;;;;0.20;0.20;;;;;;;16.64;47.67;100501.16;5028877;28;20049;-68
2023/09/24 05:48:43;;;;;;;0.20;0.20;;;;;;;17.08;46.91;100529.50;5021607;28;20063;-68
2023/09/24 05:51:09;;;;;;;0.30;0.30;;;;;;;17.26;46.28;100529.75;5038015;28;20044;-68
2023/09/24 05:53:37;;;;;;;0.30;0.30;;;;;;;17.40;46.05;100525.09;5034784;28;20583;-70
2023/09/24 05:56:03;;;;;;;0.20;0.20;;;;;;;17.57;44.84;100535.59;5016816;28;20419;-68
2023/09/24 05:58:29;;;;;;;0.22;0.22;;;;;;;17.57;44.95;100524.53;5038660;28;20056;-70
2023/09/24 06:00:56;;;;;;;0.20;0.20;;;;;;;17.62;44.75;100508.97;5033064;28;20440;-70
2023/09/24 06:03:23;;;;;;;0.30;0.30;;;;;;;17.78;44.46;100521.38;5013932;28;20086;-69
2023/09/24 06:05:49;;;;;;;0.20;0.20;;;;;;;17.84;44.31;100531.19;5036613;28;20468;-70
2023/09/24 06:08:15;;;;;;;0.30;0.30;;;;;;;17.91;43.61;100521.69;5021100;28;20140;-68
2023/09/24 06:10:47;;;;;;;0.30;0.30;;;;;;;17.99;43.87;100534.78;5037934;28;20072;-69
2023/09/24 06:13:14;;;;;;;0.30;0.30;;;;;;;18.02;43.42;100525.91;5040542;28;20508;-70
2023/09/24 06:15:40;;;;;;;;;;;;;;;18.09;43.58;100515.25;5043819;28;20084;-68
2023/09/24 06:18:06;;;;;;;0.20;0.20;;;;;;;18.14;43.16;100515.13;5041652;28;20683;-68
2023/09/24 06:20:38;;;;;;;0.25;0.25;;;;;;;18.19;43.12;100508.69;5041703;28;20051;-69
2023/09/24 06:23:05;;;;;;;0.30;0.30;;;;;;;18.22;43.20;100504.50;5006404;28;20115;-68
2023/09/24 06:25:32;;;;;;;0.30;0.30;;;;;;;18.41;42.86;100512.63;5039997;28;20045;-67
2023/09/24 06:28:00;;;;;;;0.30;0.30;;;;;;;18.63;42.96;100513.84;5036883;28;20420;-68
2023/09/24 06:30:26;;;;;;;0.30;0.30;;;;;;;18.74;42.71;100509.69;5031028;28;20057;-68
2023/09/24 06:32:52;;;;;;;0.30;0.30;;;;;;;18.97;41.88;100506.94;5033263;28;20118;-69
2023/09/24 06:35:18;;;;;;;0.20;0.20;;;;;;;19.10;41.60;100494.16;5038788;28;20119;-69
2023/09/24 06:37:45;;;;;;;0.30;0.30;;;;;;;19.30;40.96;100501.16;5034736;28;20508;-70
2023/09/24 06:40:11;;;;;;;0.30;0.30;;;;;;;19.35;41.09;100502.97;5047527;28;20075;-68
2023/09/24 06:42:38;;;;;;;0.30;0.30;;;;;;;19.34;40.72;100502.16;5044632;28;20524;-68
2023/09/24 06:45:08;;;;;;;0.30;0.30;;;;;;;19.46;40.23;100484.94;5039954;28;20048;-68
2023/09/24 06:47:35;;;;;;;0.40;0.40;;;;;;;19.59;39.92;100490.69;5041919;28;20075;-68
2023/09/24 06:50:02;;;;;;;0.30;0.30;;;;;;;19.82;39.63;100489.50;5024817;28;20475;-68
2023/09/24 06:52:32;;;;;;;0.30;0.30;;;;;;;20.08;39.52;100488.78;5038221;28;20524;-68
2023/09/24 06:55:01;;;;;;;0.30;0.30;;;;;;;20.37;39.06;100487.38;5035775;28;20191;-71
2023/09/24 06:57:28;;;;;;;0.30;0.30;;;;;;;20.58;38.37;100485.91;5037489;28;20056;-69
2023/09/24 06:59:58;;;;;;;0.30;0.30;;;;;;;20.63;38.14;100489.34;5030947;28;20041;-69
2023/09/24 07:02:26;;;;;;;0.30;0.30;;;;;;;20.86;37.86;100485.59;5024495;28;20052;-69
2023/09/24 07:04:53;;;;;;;0.30;0.30;;;;;;;21.14;37.28;100477.72;5045600;28;20041;-69
2023/09/24 07:07:19;;;;;;;0.30;0.30;;;;;;;21.15;37.21;100472.97;5020673;28;20045;-69
2023/09/24 07:09:47;;;;;;;0.30;0.30;;;;;;;21.43;37.04;100487.28;5034119;28;20056;-70
2023/09/24 07:12:14;;;;;;;0.30;0.30;;;;;;;21.49;36.76;100482.38;5038210;28;20064;-69
2023/09/24 07:14:40;;;;;;;0.30;0.30;;;;;;;21.81;36.45;100466.22;4999412;28;20049;-70
2023/09/24 07:17:07;;;;;;;0.30;0.30;;;;;;;22.03;35.52;100465.13;5027112;28;20045;-71
2023/09/24 07:19:35;;;;;;;0.30;0.30;;;;;;;22.14;35.66;100476.69;5044574;28;20048;-72
2023/09/24 07:22:02;;;;;;;0.30;0.30;;;;;;;22.21;35.40;100468.63;5044563;28;20049;-71
2023/09/24 07:24:28;;;;;;;0.30;0.30;;;;;;;22.43;35.24;100477.00;5027641;28;20144;-69
2023/09/24 07:26:56;;;;;;;0.30;0.30;;;;;;;22.86;34.69;100484.19;5021394;28;20049;-70
2023/09/24 07:29:23;;;;;;;0.30;0.30;;;;;;;23.07;34.13;100486.13;5016129;28;20190;-68
2023/09/24 07:31:49;;;;;;;0.30;0.30;;;;;;;23.31;33.70;100484.59;5040773;28;20508;-69
2023/09/24 07:34:18;;;;;;;0.40;0.40;;;;;;;23.33;33.88;100490.63;5042185;28;20044;-69
2023/09/24 07:36:46;;;;;;;0.38;0.38;;;;;;;23.68;33.46;100489.41;5039563;28;20052;-72
2023/09/24 07:39:13;;;;;;;0.40;0.40;;;;;;;23.96;32.70;100494.31;5043893;28;20056;-72
2023/09/24 07:41:39;;;;;;;0.30;0.30;;;;;;;23.88;32.73;100491.31;5034848;28;20057;-70
2023/09/24 07:44:06;;;;;;;0.30;0.30;;;;;;;23.98;32.68;100484.44;5025375;28;20109;-72
2023/09/24 07:46:33;;;;;;;0.30;0.30;;;;;;;24.05;32.47;100492.25;5001772;28;20132;-71
2023/09/24 07:49:03;;;;;;;;;;;;;;;23.82;32.68;100497.47;5012879;28;20054;-71
2023/09/24 07:51:31;;;;;;;0.40;0.40;;;;;;;23.70;32.66;100464.75;5034177;28;20014;-71
2023/09/24 07:54:00;;;;;;;0.40;0.40;;;;;;;23.92;32.45;100494.19;5020324;28;20053;-66
2023/09/24 07:56:26;;;;;;;0.40;0.40;;;;;;;23.78;33.12;100489.78;5035599;28;20117;-69
2023/09/24 07:58:52;;;;;;;0.30;0.30;;;;;;;24.17;32.84;100499.81;5038482;28;20467;-69
2023/09/24 08:01:21;;;;;;;0.30;0.30;;;;;;;24.46;32.08;100492.31;5045456;28;20480;-70
2023/09/24 08:03:48;;;;;;;0.40;0.40;;;;;;;24.72;31.87;100485.47;5011547;28;20414;-69
2023/09/24 08:06:14;;;;;;;0.40;0.40;;;;;;;25.03;31.79;100487.59;5042933;28;20072;-68
2023/09/24 08:08:40;;;;;;;0.40;0.40;;;;;;;25.34;31.46;100485.19;5043706;28;20170;-71
2023/09/24 08:11:08;;;;;;;0.30;0.30;;;;;;;25.50;30.94;100482.44;5024150;28;20059;-71
2023/09/24 08:13:35;;;;;;;0.40;0.40;;;;;;;25.10;31.44;100483.34;5048320;28;20139;-69
2023/09/24 08:16:01;;;;;;;0.40;0.40;;;;;;;24.78;31.18;100495.28;5042134;28;20110;-70
2023/09/24 08:18:27;;;;;;;0.40;0.40;;;;;;;24.72;31.71;100475.09;5019148;28;20052;-70
2023/09/24 08:20:54;;;;;;;0.32;0.32;;;;;;;25.07;31.49;100465.31;5022047;28;20052;-70
2023/09/24 08:23:21;;;;;;;0.40;0.40;;;;;;;25.43;30.90;100466.25;5039796;28;20071;-70
2023/09/24 08:25:50;;;;;;;0.40;0.40;;;;;;;25.73;30.13;100465.81;5035328;28;20072;-69
2023/09/24 08:28:18;;;;;;;0.40;0.40;;;;;;;25.90;30.42;100464.63;5037012;28;20515;-69
2023/09/24 08:30:46;;;;;;;0.40;0.40;;;;;;;26.08;29.96;100461.44;5033126;28;20145;-70
2023/09/24 08:33:12;;;;;;;0.50;0.40;;;;;;;26.11;29.73;100457.06;5041332;28;20045;-71
2023/09/24 08:35:41;;;;;;;0.40;0.40;;;;;;;25.98;29.90;100457.19;5050838;28;20135;-70
2023/09/24 08:38:07;;;;;;;0.40;0.40;;;;;;;25.86;30.19;100448.94;5037476;28;20065;-67
2023/09/24 08:40:34;;;;;;;0.40;0.40;;;;;;;25.81;30.20;100443.59;4997967;28;20041;-69
2023/09/24 08:43:05;;;;;;;0.40;0.40;;;;;;;25.79;30.26;100448.75;5042879;28;20676;-71
2023/09/24 08:45:32;;;;;;;0.55;0.40;;;;;;;25.87;30.52;100456.16;5042224;28;20122;-69
2023/09/24 08:48:00;;;;;;;0.40;0.40;;;;;;;26.05;29.89;100459.34;5046849;28;20072;-70
2023/09/24 08:50:27;;;;;;;0.40;0.40;;;;;;;26.15;29.65;100438.38;5057045;28;20058;-69
2023/09/24 08:52:54;;;;;;;0.40;0.40;;;;;;;26.19;29.79;100442.91;5016495;28;20591;-69
2023/09/24 08:55:21;;;;;;;0.40;0.40;;;;;;;26.19;29.81;100436.50;5037602;28;20143;-71
2023/09/24 08:57:47;;;;;;;0.40;0.40;;;;;;;26.22;29.79;100448.94;5043036;28;20091;-69
2023/09/24 09:00:15;;;;;;;0.40;0.40;;;;;;;26.01;30.01;100436.06;5023537;28;20540;-69
2023/09/24 09:02:43;;;;;;;0.30;0.30;;;;;;;25.88;30.33;100446.56;5035768;28;20044;-67
2023/09/24 09:05:12;;;;;;;0.40;0.40;;;;;;;25.48;31.00;100437.22;5022817;28;20502;-70
2023/09/24 09:07:54;;;;;;;0.43;0.43;;;;;;;25.20;31.38;100433.28;5019638;28;20021;-70
2023/09/24 09:10:25;;;;;;;0.38;0.38;;;;;;;25.28;31.43;100437.06;5023691;28;20164;-72
2023/09/24 09:13:02;;;;;;;0.40;0.40;;;;;;;25.46;31.23;100442.34;5007514;28;20078;-70
2023/09/24 09:15:28;;;;;;;0.40;0.40;;;;;;;25.84;31.03;100428.88;5035002;28;20065;-69
2023/09/24 09:17:56;;;;;;;0.40;0.40;;;;;;;25.97;30.81;100435.97;5026407;28;20049;-69
2023/09/24 09:20:38;;;;;;;0.40;0.40;;;;;;;25.45;31.14;100446.31;5026811;28;20049;-71
2023/09/24 09:23:05;;;;;;;0.50;0.50;;;;;;;25.31;31.42;100453.16;5024790;28;20075;-72
2023/09/24 09:25:31;;;;;;;0.40;0.40;;;;;;;25.45;30.99;100449.13;5026602;28;20048;-72
2023/09/24 09:27:57;;;;;;;0.50;0.50;;;;;;;25.49;31.22;100434.03;5010324;28;20059;-69
2023/09/24 09:30:23;;;;;;;0.50;0.50;;;;;;;25.65;30.63;100430.41;5007119;28;20041;-69
2023/09/24 09:32:50;;;;;;;0.50;0.50;;;;;;;25.72;30.56;100439.00;5028283;28;20045;-70
2023/09/24 09:35:17;;;;;;;0.40;0.40;;;;;;;25.87;30.16;100428.16;5020184;28;20454;-69
2023/09/24 09:37:44;;;;;;;0.40;0.40;;;;;;;25.86;30.36;100430.13;5030927;28;20044;-68
2023/09/24 09:40:11;;;;;;;0.40;0.40;;;;;;;25.85;30.40;100431.28;5005197;28;20048;-70
2023/09/24 09:42:38;;;;;;;0.50;0.50;;;;;;;25.99;30.29;100438.41;5040281;28;20072;-70
2023/09/24 09:45:07;;;;;;;0.50;0.50;;;;;;;26.27;29.90;100432.66;5055979;28;20056;-69
2023/09/24 09:47:38;;;;;;;0.43;0.43;;;;;;;26.27;29.53;100427.06;5022193;28;20048;-70
2023/09/24 09:50:06;;;;;;;0.50;0.50;;;;;;;26.35;29.29;100467.25;5037320;28;20057;-69
2023/09/24 09:52:39;;;;;;;0.50;0.50;;;;;;;26.33;29.25;100419.16;5029847;28;20052;-70
2023/09/24 09:55:07;;;;;;;0.50;0.50;;;;;;;26.52;29.07;100431.56;5013732;28;20053;-69
2023/09/24 09:57:34;;;;;;;0.40;0.40;;;;;;;26.47;29.27;100411.06;5036323;28;20524;-70
2023/09/24 10:00:00;;;;;;;;;;;;;;;26.33;29.67;100421.97;5047838;28;20114;-69
2023/09/24 10:02:29;;;;;;;0.40;0.40;;;;;;;26.42;29.37;100419.78;5028421;28;19935;-69
2023/09/24 10:04:57;;;;;;;0.40;0.40;;;;;;;26.50;29.44;100414.31;5025329;28;20144;-70
2023/09/24 10:07:24;;;;;;;0.40;0.40;;;;;;;26.77;28.93;100420.84;5041638;28;20045;-69
2023/09/24 10:09:51;;;;;;;0.50;0.50;;;;;;;27.09;28.13;100417.06;5044853;28;20049;-69
2023/09/24 10:12:34;;;;;;;0.60;0.60;;;;;;;27.38;27.71;100454.06;5047897;28;20061;-69
2023/09/24 10:15:27;;;;;;;0.60;0.60;;;;;;;28.16;26.31;100408.75;5047597;28;20050;-69
2023/09/24 10:18:24;;;;;;;0.60;0.60;;;;;;;29.02;25.12;100407.34;5006763;28;20048;-70
2023/09/24 10:21:03;;;;;;;0.60;0.60;;;;;;;30.26;24.12;100398.59;5010454;28;20517;-69
2023/09/24 10:23:35;;;;;;;0.60;0.60;;;;;;;30.90;23.22;100392.78;5038322;28;20496;-69
2023/09/24 10:26:05;;;;;;;0.60;0.60;;;;;;;30.73;22.85;100383.88;5049255;28;20099;-69
2023/09/24 10:28:47;;;;;;;0.50;0.50;;;;;;;29.50;24.84;100383.25;5030936;28;20074;-67
2023/09/24 10:31:14;;;;;;;0.57;0.57;;;;;;;28.97;24.95;100368.31;5038411;28;20425;-68
2023/09/24 10:33:59;;;;;;;0.60;0.60;;;;;;;29.21;25.17;100375.34;5047591;28;20051;-68
2023/09/24 10:36:29;;;;;;;0.40;0.40;;;;;;;29.57;24.30;100357.94;5010025;28;20048;-69
2023/09/24 10:39:03;;;;;;;0.50;0.50;;;;;;;29.02;25.25;100384.84;5036118;28;20420;-69
2023/09/24 10:41:33;;;;;;;0.50;0.50;;;;;;;28.09;26.23;100382.53;5003175;28;20053;-70
2023/09/24 10:44:24;;;;;;;0.70;0.70;;;;;;;27.53;27.06;100385.75;5043313;28;20490;-68
2023/09/24 10:46:51;;;;;;;0.70;0.70;;;;;;;28.12;26.26;100393.81;4997377;28;20126;-67
2023/09/24 10:49:19;;;;;;;0.70;0.70;;;;;;;28.78;25.38;100377.72;5038840;28;20129;-71
2023/09/24 10:51:45;;;;;;;0.80;0.80;;;;;;;29.67;24.54;100359.22;5029423;28;20083;-70
2023/09/24 10:54:12;;;;;;;0.80;0.80;;;;;;;30.39;23.37;100368.03;5021784;28;20045;-70
2023/09/24 10:56:41;;;;;;;0.80;0.80;;;;;;;30.21;23.47;100384.09;5036322;28;20299;-70
2023/09/24 10:59:07;;;;;;;0.90;0.90;;;;;;;30.26;23.10;100378.06;5015267;28;20467;-70
2023/09/24 11:01:34;;;;;;;0.90;0.90;;;;;;;30.69;22.75;100355.66;5027105;28;20061;-68
2023/09/24 11:04:00;;;;;;;1.00;1.00;;;;;;;30.62;23.05;100350.00;5032955;28;20159;-70
2023/09/24 11:06:31;;;;;;;0.90;0.90;;;;;;;30.74;22.94;100354.44;5036003;28;20037;-69
2023/09/24 11:09:13;;;;;;;1.00;1.00;;;;;;;30.75;22.67;100346.78;5015594;28;20140;-70
2023/09/24 11:11:41;;;;;;;1.00;1.00;;;;;;;31.04;22.77;100367.38;5042114;28;20065;-68
2023/09/24 11:14:16;;;;;;;1.10;1.10;;;;;;;31.08;22.50;100350.47;4998459;28;20068;-66
2023/09/24 11:16:43;;;;;;;1.10;1.10;;;;;;;30.81;22.83;100382.66;5032014;28;20052;-68
2023/09/24 11:19:09;;;;;;;1.10;1.10;;;;;;;30.88;22.64;100353.66;5018951;28;20049;-68
2023/09/24 11:21:35;;;;;;;;;;;;;;;30.82;22.55;100355.28;5032493;28;20115;-70
2023/09/24 11:24:19;;;;;;;1.00;1.00;;;;;;;30.79;22.66;100362.50;5030436;28;20055;-68
2023/09/24 11:26:47;;;;;;;1.10;1.10;;;;;;;30.64;22.76;100372.97;5028844;28;20049;-68
2023/09/24 11:29:13;;;;;;;1.10;1.10;;;;;;;30.80;22.61;100360.50;5040680;28;20156;-68
2023/09/24 11:31:44;;;;;;;1.10;1.10;;;;;;;31.40;22.10;100356.09;5041414;28;20048;-71
2023/09/24 11:34:11;;;;;;;1.10;1.10;;;;;;;31.79;21.70;100356.47;5012563;28;20049;-69